Time;durP1;ratioP1;P1;durP2;ratioP2;P2;SDS_P1;SDS_P2;PMS_P1;PMS_P2;Temp;Humidity;BMP_temperature;BMP_pressure;BME280_temperature;BME280_humidity;BME280_pressure;Samples;Min_cycle;Max_cycle;Signal;HPM_P1;HPM_P2
2022/03/24 00:01:15;;;;;;;;;;;;;;;;;;5095931;28;19912;-83
2022/03/24 00:03:41;;;;;;;;;;;;;;;;;;5094579;28;20372;-82
2022/03/24 00:06:07;;;;;;;;;;;;;;;;;;5095634;28;19920;-84
2022/03/24 00:08:33;;;;;;;;;;;;;;;;;;5095458;28;19912;-83
2022/03/24 00:10:59;;;;;;;;;;;;;;;;;;5095538;28;19938;-83
2022/03/24 00:13:24;;;;;;;;;;;;;;;;;;5095726;28;19912;-83
2022/03/24 00:15:50;;;;;;;;;;;;;;;;;;5095608;28;19916;-83
2022/03/24 00:18:16;;;;;;;;;;;;;;;;;;5095401;28;19938;-83
2022/03/24 00:20:41;;;;;;;;;;;;;;;;;;5095449;28;19916;-83
2022/03/24 00:23:06;;;;;;;;;;;;;;;;;;5095450;28;19916;-82
2022/03/24 00:25:32;;;;;;;;;;;;;;;;;;5095479;28;19916;-85
2022/03/24 00:27:57;;;;;;;;;;;;;;;;;;5094820;28;19923;-83
2022/03/24 00:30:23;;;;;;;;;;;;;;;;;;5095282;28;20569;-83
2022/03/24 00:32:48;;;;;;;;;;;;;;;;;;5095361;28;19924;-84
2022/03/24 00:35:14;;;;;;;;;;;;;;;;;;5095254;28;19920;-83
2022/03/24 00:37:39;;;;;;;;;;;;;;;;;;5099369;28;20280;-84
2022/03/24 00:40:07;;;;;;;;;;;;;;;;;;5115031;28;19923;-83
2022/03/24 00:42:34;;;;;;;;;;;;;;;;;;5115821;28;19915;-83
2022/03/24 00:44:59;;;;;;;;;;;;;;;;;;5115521;28;19923;-83
2022/03/24 00:47:25;;;;;;;;;;;;;;;;;;5115267;28;19920;-83
2022/03/24 00:49:51;;;;;;;;;;;;;;;;;;5115023;28;20399;-83
2022/03/24 00:52:16;;;;;;;;;;;;;;;;;;5115314;28;19920;-83
2022/03/24 00:54:42;;;;;;;;;;;;;;;;;;5115351;28;19947;-83
2022/03/24 00:57:07;;;;;;;;;;;;;;;;;;5114992;28;19969;-83
2022/03/24 00:59:33;;;;;;;;;;;;;;;;;;5106131;28;19961;-83
2022/03/24 01:01:59;;;;;;;;;;;;;;;;;;5094735;28;19924;-83
2022/03/24 01:04:24;;;;;;;;;;;;;;;;;;5094698;28;19923;-83
2022/03/24 01:06:50;;;;;;;;;;;;;;;;;;5094992;28;19916;-85
2022/03/24 01:09:15;;;;;;;;;;;;;;;;;;5094392;28;20437;-84
2022/03/24 01:11:41;;;;;;;;;;;;;;;;;;5094373;28;19927;-83
2022/03/24 01:14:07;;;;;;;;;;;;;;;;;;5093217;28;19970;-84
2022/03/24 01:16:33;;;;;;;;;;;;;;;;;;5094434;28;19916;-83
2022/03/24 01:18:58;;;;;;;;;;;;;;;;;;5094426;28;20329;-84
2022/03/24 01:21:24;;;;;;;;;;;;;;;;;;5094442;28;19916;-82
2022/03/24 01:23:49;;;;;;;;;;;;;;;;;;5092935;28;20360;-84
2022/03/24 01:26:15;;;;;;;;;;;;;;;;;;5094090;28;19920;-83
2022/03/24 01:28:41;;;;;;;;;;;;;;;;;;5093873;28;19912;-83
2022/03/24 01:31:10;;;;;;;;;;;;;;;;;;5094054;28;19927;-83
2022/03/24 01:33:37;;;;;;;;;;;;;;;;;;5098222;28;19920;-84
2022/03/24 01:36:04;;;;;;;;;;;;;;;;;;5114389;28;20698;-84
2022/03/24 01:38:30;;;;;;;;;;;;;;;;;;5114312;28;19916;-83
2022/03/24 01:40:58;;;;;;;;;;;;;;;;;;5114209;28;19981;-80
2022/03/24 01:43:24;;;;;;;;;;;;;;;;;;5114303;28;19968;-82
2022/03/24 01:45:50;;;;;;;;;;;;;;;;;;5114247;28;19916;-83
2022/03/24 01:48:16;;;;;;;;;;;;;;;;;;5114018;28;19922;-82
2022/03/24 01:50:42;;;;;;;;;;;;;;;;;;5113731;28;19957;-82
2022/03/24 01:53:08;;;;;;;;;;;;;;;;;;5114114;28;19918;-82
2022/03/24 01:55:35;;;;;;;;;;;;;;;;;;5112690;28;20291;-82
2022/03/24 01:58:02;;;;;;;;;;;;;;;;;;5114049;28;20312;-82
2022/03/24 02:00:28;;;;;;;;;;;;;;;;;;5098468;28;19916;-84
2022/03/24 02:02:53;;;;;;;;;;;;;;;;;;5093652;28;19924;-82
2022/03/24 02:05:19;;;;;;;;;;;;;;;;;;5093640;28;19916;-82
2022/03/24 02:07:44;;;;;;;;;;;;;;;;;;5093127;28;19959;-82
2022/03/24 02:10:11;;;;;;;;;;;;;;;;;;5092790;28;19997;-83
2022/03/24 02:12:37;;;;;;;;;;;;;;;;;;5093362;28;19920;-83
2022/03/24 02:15:03;;;;;;;;;;;;;;;;;;5093500;28;19923;-83
2022/03/24 02:17:30;;;;;;;;;;;;;;;;;;5092283;28;19916;-83
2022/03/24 02:19:57;;;;;;;;;;;;;;;;;;5093517;28;19921;-83
2022/03/24 02:22:23;;;;;;;;;;;;;;;;;;5093346;28;19953;-83
2022/03/24 02:24:49;;;;;;;;;;;;;;;;;;5106024;28;20369;-83
2022/03/24 02:27:14;;;;;;;;;;;;;;;;;;5113459;28;19916;-83
2022/03/24 02:29:40;;;;;;;;;;;;;;;;;;5113213;28;20383;-82
2022/03/24 02:32:11;;;;;;;;;;;;;;;;;;5113328;28;19915;-83
2022/03/24 02:34:37;;;;;;;;;;;;;;;;;;5113491;28;19962;-83
2022/03/24 02:37:07;;;;;;;;;;;;;;;;;;5113463;28;19916;-83
2022/03/24 02:39:33;;;;;;;;;;;;;;;;;;5113988;28;19923;-84
2022/03/24 02:42:00;;;;;;;;;;;;;;;;;;5113153;28;19959;-83
2022/03/24 02:44:27;;;;;;;;;;;;;;;;;;5112088;28;20010;-84
2022/03/24 02:46:54;;;;;;;;;;;;;;;;;;5113496;28;19965;-82
2022/03/24 02:49:20;;;;;;;;;;;;;;;;;;5113118;28;19911;-83
2022/03/24 02:51:46;;;;;;;;;;;;;;;;;;5113272;28;20002;-82
2022/03/24 02:54:12;;;;;;;;;;;;;;;;;;5113226;28;20002;-83
2022/03/24 02:56:38;;;;;;;;;;;;;;;;;;5113307;28;19923;-83
2022/03/24 02:59:04;;;;;;;;;;;;;;;;;;5108379;28;19920;-84
2022/03/24 03:01:30;;;;;;;;;;;;;;;;;;5092812;28;19916;-83
2022/03/24 03:03:55;;;;;;;;;;;;;;;;;;5093055;28;19917;-83
2022/03/24 03:06:21;;;;;;;;;;;;;;;;;;5092703;28;19927;-83
2022/03/24 03:08:49;;;;;;;;;;;;;;;;;;5092738;28;19961;-83
2022/03/24 03:11:15;;;;;;;;;;;;;;;;;;5092468;28;19920;-83
2022/03/24 03:13:40;;;;;;;;;;;;;;;;;;5092691;28;19923;-83
2022/03/24 03:16:06;;;;;;;;;;;;;;;;;;5092538;28;19920;-83
2022/03/24 03:18:34;;;;;;;;;;;;;;;;;;5093049;28;19920;-84
2022/03/24 03:21:00;;;;;;;;;;;;;;;;;;5094276;28;19920;-82
2022/03/24 03:23:25;;;;;;;;;;;;;;;;;;5096707;28;19923;-82
2022/03/24 03:25:51;;;;;;;;;;;;;;;;;;5096628;28;19944;-84
2022/03/24 03:28:16;;;;;;;;;;;;;;;;;;5096401;28;20333;-84
2022/03/24 03:30:43;;;;;;;;;;;;;;;;;;5096134;28;19916;-81
2022/03/24 03:33:09;;;;;;;;;;;;;;;;;;5096434;28;19923;-82
2022/03/24 03:35:35;;;;;;;;;;;;;;;;;;5096359;28;19961;-82
2022/03/24 03:38:00;;;;;;;;;;;;;;;;;;5096234;28;20334;-82
2022/03/24 03:40:26;;;;;;;;;;;;;;;;;;5108223;28;20405;-83
2022/03/24 03:42:52;;;;;;;;;;;;;;;;;;5116884;28;20393;-83
2022/03/24 03:45:18;;;;;;;;;;;;;;;;;;5116674;28;20288;-82
2022/03/24 03:47:44;;;;;;;;;;;;;;;;;;5116554;28;19923;-83
2022/03/24 03:50:09;;;;;;;;;;;;;;;;;;5115996;28;19916;-85
2022/03/24 03:52:34;;;;;;;;;;;;;;;;;;5116450;28;20349;-82
2022/03/24 03:55:00;;;;;;;;;;;;;;;;;;5116515;28;19923;-83
2022/03/24 03:57:25;;;;;;;;;;;;;;;;;;5116304;28;19974;-82
2022/03/24 03:59:51;;;;;;;;;;;;;;;;;;5106068;28;19916;-86
2022/03/24 04:02:16;;;;;;;;;;;;;;;;;;5096053;28;19920;-82
2022/03/24 04:04:42;;;;;;;;;;;;;;;;;;5096193;28;20455;-83
2022/03/24 04:07:07;;;;;;;;;;;;;;;;;;5096012;28;20318;-83
2022/03/24 04:09:33;;;;;;;;;;;;;;;;;;5095615;28;19962;-83
2022/03/24 04:11:58;;;;;;;;;;;;;;;;;;5093898;28;19970;-84
2022/03/24 04:14:25;;;;;;;;;;;;;;;;;;5095695;28;19912;-84
2022/03/24 04:16:51;;;;;;;;;;;;;;;;;;5094321;28;19962;-84
2022/03/24 04:19:19;;;;;;;;;;;;;;;;;;5095619;28;19978;-86
2022/03/24 04:21:45;;;;;;;;;;;;;;;;;;5095558;28;20423;-85
2022/03/24 04:24:10;;;;;;;;;;;;;;;;;;5101751;28;19955;-84
2022/03/24 04:26:36;;;;;;;;;;;;;;;;;;5115956;27;19920;-85
2022/03/24 04:29:02;;;;;;;;;;;;;;;;;;5114598;28;19923;-85
2022/03/24 04:31:27;;;;;;;;;;;;;;;;;;5114870;28;19916;-84
2022/03/24 04:33:53;;;;;;;;;;;;;;;;;;5115718;28;19916;-86
2022/03/24 04:36:18;;;;;;;;;;;;;;;;;;5113892;28;20012;-85
2022/03/24 04:38:44;;;;;;;;;;;;;;;;;;5095258;28;19916;-84
2022/03/24 04:41:09;;;;;;;;;;;;;;;;;;5094982;28;19930;-83
2022/03/24 04:43:35;;;;;;;;;;;;;;;;;;5097025;28;19920;-85
2022/03/24 04:46:00;;;;;;;;;;;;;;;;;;5115861;28;19916;-85
2022/03/24 04:48:26;;;;;;;;;;;;;;;;;;5116524;28;19938;-84
2022/03/24 04:50:51;;;;;;;;;;;;;;;;;;5112836;27;20341;-86
2022/03/24 04:53:17;;;;;;;;;;;;;;;;;;5115290;28;19919;-85
2022/03/24 04:55:43;;;;;;;;;;;;;;;;;;5094991;28;19916;-82
2022/03/24 04:58:09;;;;;;;;;;;;;;;;;;5108716;28;19920;-82
2022/03/24 05:00:34;;;;;;;;;;;;;;;;;;5101537;28;20014;-84
2022/03/24 05:03:00;;;;;;;;;;;;;;;;;;5113524;28;19919;-82
2022/03/24 05:05:25;;;;;;;;;;;;;;;;;;5109889;28;19916;-84
2022/03/24 05:07:51;;;;;;;;;;;;;;;;;;5093496;28;19916;-84
2022/03/24 05:10:16;;;;;;;;;;;;;;;;;;5094143;28;19967;-84
2022/03/24 05:12:42;;;;;;;;;;;;;;;;;;5094495;28;19978;-83
2022/03/24 05:15:08;;;;;;;;;;;;;;;;;;5094952;28;19924;-84
2022/03/24 05:17:34;;;;;;;;;;;;;;;;;;5094623;28;19923;-83
2022/03/24 05:19:59;;;;;;;;;;;;;;;;;;5094560;28;19916;-84
2022/03/24 05:22:25;;;;;;;;;;;;;;;;;;5095296;28;19923;-84
2022/03/24 05:24:50;;;;;;;;;;;;;;;;;;5095977;28;19912;-86
2022/03/24 05:27:16;;;;;;;;;;;;;;;;;;5094701;28;19920;-86
2022/03/24 05:29:41;;;;;;;;;;;;;;;;;;5094611;28;19955;-85
2022/03/24 05:32:07;;;;;;;;;;;;;;;;;;5094506;28;19920;-85
2022/03/24 05:34:32;;;;;;;;;;;;;;;;;;5094348;28;19961;-85
2022/03/24 05:36:58;;;;;;;;;;;;;;;;;;5102807;28;19961;-85
2022/03/24 05:39:23;;;;;;;;;;;;;;;;;;5114592;28;20359;-84
2022/03/24 05:41:49;;;;;;;;;;;;;;;;;;5114295;28;20014;-84
2022/03/24 05:44:14;;;;;;;;;;;;;;;;;;5113441;28;20452;-85
2022/03/24 05:46:41;;;;;;;;;;;;;;;;;;5114638;28;19916;-84
2022/03/24 05:49:08;;;;;;;;;;;;;;;;;;5111779;28;19920;-84
2022/03/24 05:51:36;;;;;;;;;;;;;;;;;;5113598;28;20189;-82
2022/03/24 05:54:02;;;;;;;;;;;;;;;;;;5114348;28;20024;-83
2022/03/24 05:56:27;;;;;;;;;;;;;;;;;;5114192;28;19915;-82
2022/03/24 05:58:55;;;;;;;;;;;;;;;;;;5110832;28;19916;-76
2022/03/24 06:01:21;;;;;;;;;;;;;;;;;;5093835;28;20021;-76
2022/03/24 06:03:48;;;;;;;;;;;;;;;;;;5093677;28;19931;-79
2022/03/24 06:06:13;;;;;;;;;;;;;;;;;;5093746;28;19965;-80
2022/03/24 06:08:42;;;;;;;;;;;;;;;;;;5093652;28;20296;-82
2022/03/24 06:11:13;;;;;;;;;;;;;;;;;;5093739;28;20398;-85
2022/03/24 06:13:40;;;;;;;;;;;;;;;;;;5093713;28;20364;-85
2022/03/24 06:16:05;;;;;;;;;;;;;;;;;;5093667;28;19969;-84
2022/03/24 06:18:32;;;;;;;;;;;;;;;;;;5092293;28;20035;-83
2022/03/24 06:20:59;;;;;;;;;;;;;;;;;;5093468;28;19923;-83
2022/03/24 06:23:25;;;;;;;;;;;;;;;;;;5093600;28;20013;-82
2022/03/24 06:25:50;;;;;;;;;;;;;;;;;;5093478;28;19920;-83
2022/03/24 06:28:16;;;;;;;;;;;;;;;;;;5093535;28;19926;-89
2022/03/24 06:30:41;;;;;;;;;;;;;;;;;;5093497;28;19922;-88
2022/03/24 06:33:07;;;;;;;;;;;;;;;;;;5093443;28;19927;-86
2022/03/24 06:35:32;;;;;;;;;;;;;;;;;;5092221;28;20292;-88
2022/03/24 06:37:58;;;;;;;;;;;;;;;;;;5093421;28;20014;-87
2022/03/24 06:40:24;;;;;;;;;;;;;;;;;;5093374;28;19928;-91
2022/03/24 06:42:52;;;;;;;;;;;;;;;;;;5093444;28;20014;-87
2022/03/24 06:45:17;;;;;;;;;;;;;;;;;;5093325;28;19970;-87
2022/03/24 06:47:43;;;;;;;;;;;;;;;;;;5093340;28;19920;-88
2022/03/24 06:50:12;;;;;;;;;;;;;;;;;;5093316;28;19926;-85
2022/03/24 06:52:38;;;;;;;;;;;;;;;;;;5093213;28;19942;-83
2022/03/24 06:55:05;;;;;;;;;;;;;;;;;;5093682;28;19919;-84
2022/03/24 06:57:31;;;;;;;;;;;;;;;;;;5097227;28;19941;-84
2022/03/24 06:59:56;;;;;;;;;;;;;;;;;;5097332;28;19920;-86
2022/03/24 07:02:22;;;;;;;;;;;;;;;;;;5097227;28;19912;-86
2022/03/24 07:04:47;;;;;;;;;;;;;;;;;;5095915;28;19999;-85
2022/03/24 07:07:13;;;;;;;;;;;;;;;;;;5097175;28;19919;-83
2022/03/24 07:09:39;;;;;;;;;;;;;;;;;;5097182;28;20400;-81
2022/03/24 07:12:04;;;;;;;;;;;;;;;;;;5097075;28;19916;-83
2022/03/24 07:14:30;;;;;;;;;;;;;;;;;;5096915;28;20279;-82
2022/03/24 07:16:55;;;;;;;;;;;;;;;;;;5097073;28;19916;-82
2022/03/24 07:19:21;;;;;;;;;;;;;;;;;;5097238;28;19927;-84
2022/03/24 07:21:46;;;;;;;;;;;;;;;;;;5096841;28;20430;-82
2022/03/24 07:24:12;;;;;;;;;;;;;;;;;;5096894;28;19978;-82
2022/03/24 07:26:38;;;;;;;;;;;;;;;;;;5095445;28;19916;-84
2022/03/24 07:29:04;;;;;;;;;;;;;;;;;;5096781;28;19920;-84
2022/03/24 07:31:29;;;;;;;;;;;;;;;;;;5096724;28;20028;-87
2022/03/24 07:33:57;;;;;;;;;;;;;;;;;;5096728;28;19965;-85
2022/03/24 07:36:23;;;;;;;;;;;;;;;;;;5096710;28;20361;-85
2022/03/24 07:38:50;;;;;;;;;;;;;;;;;;5096631;28;19937;-84
2022/03/24 07:41:15;;;;;;;;;;;;;;;;;;5096400;28;19972;-84
2022/03/24 07:43:41;;;;;;;;;;;;;;;;;;5096519;28;20015;-83
2022/03/24 07:46:06;;;;;;;;;;;;;;;;;;5096370;28;19924;-86
2022/03/24 07:48:32;;;;;;;;;;;;;;;;;;5096421;28;19920;-86
2022/03/24 07:50:59;;;;;;;;;;;;;;;;;;5096389;28;19919;-86
2022/03/24 07:53:27;;;;;;;;;;;;;;;;;;5096187;28;19961;-86
2022/03/24 07:55:54;;;;;;;;;;;;;;;;;;5096163;28;19927;-85
2022/03/24 07:58:21;;;;;;;;;;;;;;;;;;5096257;28;19915;-87
2022/03/24 08:00:47;;;;;;;;;;;;;;;;;;5096309;28;19922;-87
2022/03/24 08:03:16;;;;;;;;;;;;;;;;;;5096049;28;19912;-85
2022/03/24 08:05:42;;;;;;;;;;;;;;;;;;5094229;28;19916;-83
2022/03/24 08:08:09;;;;;;;;;;;;;;;;;;5095481;28;19916;-86
2022/03/24 08:10:38;;;;;;;;;;;;;;;;;;5095032;28;19916;-86
2022/03/24 08:13:04;;;;;;;;;;;;;;;;;;5095985;28;20035;-88
2022/03/24 08:15:30;;;;;;;;;;;;;;;;;;5095866;28;19966;-85
2022/03/24 08:17:55;;;;;;;;;;;;;;;;;;5095820;28;20456;-86
2022/03/24 08:20:20;;;;;;;;;;;;;;;;;;5095768;28;20011;-84
2022/03/24 08:22:46;;;;;;;;;;;;;;;;;;5105736;28;19977;-87
2022/03/24 08:25:13;;;;;;;;;;;;;;;;;;5116111;28;19916;-84
2022/03/24 08:27:38;;;;;;;;;;;;;;;;;;5114687;28;19916;-82
2022/03/24 08:30:04;;;;;;;;;;;;;;;;;;5114996;28;19960;-86
2022/03/24 08:32:29;;;;;;;;;;;;;;;;;;5114661;28;20032;-84
2022/03/24 08:34:55;;;;;;;;;;;;;;;;;;5115152;28;19927;-78
2022/03/24 08:37:20;;;;;;;;;;;;;;;;;;5115816;28;20170;-83
2022/03/24 08:39:46;;;;;;;;;;;;;;;;;;5115921;28;19919;-87
2022/03/24 08:42:11;;;;;;;;;;;;;;;;;;5115601;28;19926;-82
2022/03/24 08:44:37;;;;;;;;;;;;;;;;;;5115628;28;19938;-88
2022/03/24 08:47:02;;;;;;;;;;;;;;;;;;5115589;28;19915;-89
2022/03/24 08:49:28;;;;;;;;;;;;;;;;;;5115659;28;19938;-88
2022/03/24 08:51:53;;;;;;;;;;;;;;;;;;5115681;28;19962;-88
2022/03/24 08:54:19;;;;;;;;;;;;;;;;;;5115508;28;19916;-86
2022/03/24 08:56:44;;;;;;;;;;;;;;;;;;5114492;28;20324;-86
2022/03/24 08:59:10;;;;;;;;;;;;;;;;;;5111099;28;19912;-87
2022/03/24 09:01:36;;;;;;;;;;;;;;;;;;5095028;28;20014;-89
2022/03/24 09:04:01;;;;;;;;;;;;;;;;;;5095096;28;20011;-90
2022/03/24 09:06:26;;;;;;;;;;;;;;;;;;5094881;28;19924;-86
2022/03/24 09:08:53;;;;;;;;;;;;;;;;;;5095373;28;19958;-88
2022/03/24 09:11:18;;;;;;;;;;;;;;;;;;5095343;28;19916;-88
2022/03/24 09:13:43;;;;;;;;;;;;;;;;;;5095240;28;20402;-85
2022/03/24 09:16:10;;;;;;;;;;;;;;;;;;5093903;28;20046;-85
2022/03/24 09:18:36;;;;;;;;;;;;;;;;;;5094590;28;19967;-89
2022/03/24 09:21:01;;;;;;;;;;;;;;;;;;5094861;28;20308;-88
2022/03/24 09:23:28;;;;;;;;;;;;;;;;;;5094671;28;19912;-84
2022/03/24 09:25:54;;;;;;;;;;;;;;;;;;5094486;28;20390;-88
2022/03/24 09:28:20;;;;;;;;;;;;;;;;;;5094539;28;19916;-87
2022/03/24 09:30:45;;;;;;;;;;;;;;;;;;5094449;28;19985;-85
2022/03/24 09:33:11;;;;;;;;;;;;;;;;;;5094313;28;19916;-86
2022/03/24 09:35:36;;;;;;;;;;;;;;;;;;5092999;28;19947;-89
2022/03/24 09:38:02;;;;;;;;;;;;;;;;;;5094267;28;19916;-87
2022/03/24 09:40:27;;;;;;;;;;;;;;;;;;5094244;28;20423;-87
2022/03/24 09:42:54;;;;;;;;;;;;;;;;;;5094229;28;20396;-84
2022/03/24 09:45:21;;;;;;;;;;;;;;;;;;5094021;28;19920;-87
2022/03/24 09:47:46;;;;;;;;;;;;;;;;;;5094299;28;19916;-91
2022/03/24 09:50:14;;;;;;;;;;;;;;;;;;5094097;28;19923;-89
2022/03/24 09:52:40;;;;;;;;;;;;;;;;;;5094161;28;20375;-88
2022/03/24 09:55:06;;;;;;;;;;;;;;;;;;5094019;28;19946;-88
2022/03/24 09:57:33;;;;;;;;;;;;;;;;;;5094159;28;19916;-91
2022/03/24 09:59:58;;;;;;;;;;;;;;;;;;5725408;23;19924;-77
2022/03/24 10:06:04;;;;;;;;;;;;;;;;;;5074659;28;19924;-77
2022/03/24 10:11:36;;;;;;;;;;;;;;;;;;5074593;28;19922;-76
2022/03/24 10:17:06;;;;;;;;;;;;;;;;;;5074417;28;19924;-76
2022/03/24 10:22:34;;;;;;;;;;;;;;;;;;5074234;28;19939;-77
2022/03/24 10:28:04;;;;;;;;;;;;;;;;;;5074316;28;19923;-75
2022/03/24 10:33:37;;;;;;;;;;;;;;;;;;5074035;28;20337;-75
2022/03/24 10:45:13;;;;;;;;;;;;;;;;;;5073949;28;19974;-78
2022/03/24 10:50:41;;;;;;;;;;;;;;;;;;5071720;28;19927;-77
2022/03/24 10:59:12;;;;;;;;;;;;;;;;;;5057095;28;19927;-77
2022/03/24 11:04:43;;;;;;;;;;;;;;;;;;5053435;28;19924;-78
2022/03/24 11:13:19;;;;;;;;;;;;;;;;;;5053625;28;20338;-77
2022/03/24 11:15:57;;;;;;;;;;;;;;;;;;5034535;28;20284;-77
2022/03/24 11:18:23;;;;;;;;;;;;;;;;;;5052556;28;19917;-76
2022/03/24 11:20:49;;;;;;;;;;;;;;;;;;5052628;28;19920;-76
2022/03/24 11:23:22;;;;;;;;;;;;;;;;;;5047234;28;19927;-76
2022/03/24 11:25:53;;;;;;;;;;;;;;;;;;5072624;28;19920;-77
2022/03/24 11:28:19;;;;;;;;;;;;;;;;;;5072618;28;20403;-78
2022/03/24 11:30:44;;;;;;;;;;;;;;;;;;5072775;28;20277;-78
2022/03/24 11:33:10;;;;;;;;;;;;;;;;;;5072649;28;19924;-77
2022/03/24 11:35:36;;;;;;;;;;;;;;;;;;5072568;28;19916;-79
2022/03/24 11:38:02;;;;;;;;;;;;;;;;;;5072255;28;19956;-77
2022/03/24 11:40:32;;;;;;;;;;;;;;;;;;5072368;28;19921;-78
2022/03/24 11:43:00;;;;;;;;;;;;;;;;;;5057421;28;19917;-78
2022/03/24 11:45:33;;;;;;;;;;;;;;;;;;5058244;28;19917;-77
2022/03/24 11:47:59;;;;;;;;;;;;;;;;;;5076431;28;19916;-77
2022/03/24 11:50:41;;;;;;;;;;;;;;;;;;5076085;28;19920;-77
2022/03/24 11:53:08;;;;;;;;;;;;;;;;;;5043834;28;19924;-78
2022/03/24 11:55:34;;;;;;;;;;;;;;;;;;5056024;28;19917;-77
2022/03/24 11:58:00;;;;;;;;;;;;;;;;;;5056047;28;19963;-78
2022/03/24 12:00:26;;;;;;;;;;;;;;;;;;5055833;28;19925;-77
2022/03/24 12:02:51;;;;;;;;;;;;;;;;;;5055895;28;20429;-77
2022/03/24 12:05:17;;;;;;;;;;;;;;;;;;5055794;28;19939;-78
2022/03/24 12:07:43;;;;;;;;;;;;;;;;;;5055726;28;19917;-78
2022/03/24 12:10:16;;;;;;;;;;;;;;;;;;5056011;28;20011;-80
2022/03/24 12:13:01;;;;;;;;;;;;;;;;;;5055755;28;19917;-79
2022/03/24 12:15:27;;;;;;;;;;;;;;;;;;5055749;28;20376;-77
2022/03/24 12:18:02;;;;;;;;;;;;;;;;;;5069291;28;19921;-77
2022/03/24 12:20:28;;;;;;;;;;;;;;;;;;5075573;28;19931;-77
2022/03/24 12:22:58;;;;;;;;;;;;;;;;;;5075513;28;19912;-78
2022/03/24 12:25:26;;;;;;;;;;;;;;;;;;5075575;28;19978;-79
2022/03/24 12:27:56;;;;;;;;;;;;;;;;;;5075370;28;20011;-80
2022/03/24 12:30:23;;;;;;;;;;;;;;;;;;5055384;28;19921;-80
2022/03/24 12:33:05;;;;;;;;;;;;;;;;;;5055397;28;19966;-76
2022/03/24 12:35:50;;;;;;;;;;;;;;;;;;5055313;28;19917;-78
2022/03/24 12:38:31;;;;;;;;;;;;;;;;;;5055147;28;19917;-78
2022/03/24 12:41:05;;;;;;;;;;;;;;;;;;5055286;28;19916;-77
2022/03/24 12:43:46;;;;;;;;;;;;;;;;;;5055110;28;19956;-78
2022/03/24 12:46:18;;;;;;;;;;;;;;;;;;5054927;28;19920;-77
2022/03/24 12:48:44;;;;;;;;;;;;;;;;;;5055062;28;19916;-75
2022/03/24 12:51:29;;;;;;;;;;;;;;;;;;5055038;28;20336;-78
2022/03/24 12:53:56;;;;;;;;;;;;;;;;;;5054586;28;20330;-78
2022/03/24 12:56:26;;;;;;;;;;;;;;;;;;5057409;28;19943;-79
2022/03/24 12:58:53;;;;;;;;;;;;;;;;;;5057765;28;19917;-78
2022/03/24 13:01:19;;;;;;;;;;;;;;;;;;5053163;28;20289;-78
2022/03/24 13:03:44;;;;;;;;;;;;;;;;;;5057380;28;19917;-76
2022/03/24 13:06:10;;;;;;;;;;;;;;;;;;5038344;28;20386;-77
2022/03/24 13:08:35;;;;;;;;;;;;;;;;;;5065427;28;20015;-77
2022/03/24 13:11:04;;;;;;;;;;;;;;;;;;5068285;28;19928;-76
2022/03/24 13:13:29;;;;;;;;;;;;;;;;;;5056922;28;20399;-78
2022/03/24 13:15:55;;;;;;;;;;;;;;;;;;5049511;28;19952;-77
2022/03/24 13:18:23;;;;;;;;;;;;;;;;;;5064516;28;19924;-77
2022/03/24 13:20:53;;;;;;;;;;;;;;;;;;5060743;28;20008;-78
2022/03/24 13:23:20;;;;;;;;;;;;;;;;;;5056850;28;20015;-78
2022/03/24 13:25:46;;;;;;;;;;;;;;;;;;5060360;28;20015;-78
2022/03/24 13:28:12;;;;;;;;;;;;;;;;;;5056462;28;19932;-78
2022/03/24 13:30:38;;;;;;;;;;;;;;;;;;5064635;28;19970;-77
2022/03/24 13:33:06;;;;;;;;;;;;;;;;;;5072853;28;19912;-77
2022/03/24 13:35:39;;;;;;;;;;;;;;;;;;5074030;28;19920;-77
2022/03/24 13:38:09;;;;;;;;;;;;;;;;;;5073442;28;19924;-78
2022/03/24 13:40:37;;;;;;;;;;;;;;;;;;5074160;28;19916;-76
2022/03/24 13:43:03;;;;;;;;;;;;;;;;;;5071515;28;19923;-76
2022/03/24 13:45:29;;;;;;;;;;;;;;;;;;5073720;28;19940;-76
2022/03/24 13:47:56;;;;;;;;;;;;;;;;;;5073855;28;20372;-77
2022/03/24 13:50:22;;;;;;;;;;;;;;;;;;5079422;28;19924;-76
2022/03/24 13:52:51;;;;;;;;;;;;;;;;;;5072406;28;19966;-77
2022/03/24 13:55:21;;;;;;;;;;;;;;;;;;5067440;28;20003;-77
2022/03/24 13:57:55;;;;;;;;;;;;;;;;;;5045262;28;19943;-78
2022/03/24 14:00:28;;;;;;;;;;;;;;;;;;5060376;28;19921;-76
2022/03/24 14:03:02;;;;;;;;;;;;;;;;;;5061913;28;19925;-78
2022/03/24 14:05:47;;;;;;;;;;;;;;;;;;5064011;28;19929;-77
2022/03/24 14:08:28;;;;;;;;;;;;;;;;;;5059544;28;20340;-76
2022/03/24 14:11:01;;;;;;;;;;;;;;;;;;5057760;28;20355;-76
2022/03/24 14:13:27;;;;;;;;;;;;;;;;;;5061109;28;20338;-78
2022/03/24 14:16:06;;;;;;;;;;;;;;;;;;5063275;28;19991;-78
2022/03/24 14:18:32;;;;;;;;;;;;;;;;;;5054674;28;19921;-78
2022/03/24 14:20:58;;;;;;;;;;;;;;;;;;5059228;28;19924;-77
2022/03/24 14:23:34;;;;;;;;;;;;;;;;;;5059448;28;19929;-78
2022/03/24 14:26:10;;;;;;;;;;;;;;;;;;5060358;28;20359;-78
2022/03/24 14:28:39;;;;;;;;;;;;;;;;;;5067317;28;19959;-77
2022/03/24 14:31:25;;;;;;;;;;;;;;;;;;5071993;28;19925;-77
2022/03/24 14:33:52;;;;;;;;;;;;;;;;;;5068993;28;19927;-77
2022/03/24 14:36:18;;;;;;;;;;;;;;;;;;5071957;28;19916;-78
2022/03/24 14:39:22;;;;;;;;;;;;;;;;;;5067076;28;20011;-76
2022/03/24 14:41:49;;;;;;;;;;;;;;;;;;5023984;28;20400;-77
2022/03/24 14:44:18;;;;;;;;;;;;;;;;;;5024229;28;20404;-76
2022/03/24 14:46:45;;;;;;;;;;;;;;;;;;5029376;28;19925;-76
2022/03/24 14:49:11;;;;;;;;;;;;;;;;;;5025745;28;19932;-76
2022/03/24 14:51:38;;;;;;;;;;;;;;;;;;5017217;28;19929;-77
2022/03/24 14:54:05;;;;;;;;;;;;;;;;;;5011889;28;19936;-77
2022/03/24 14:56:31;;;;;;;;;;;;;;;;;;5029958;28;19971;-76
2022/03/24 14:58:57;;;;;;;;;;;;;;;;;;5029944;28;19967;-76
2022/03/24 15:01:25;;;;;;;;;;;;;;;;;;5029300;28;20432;-76
2022/03/24 15:03:51;;;;;;;;;;;;;;;;;;5029713;28;20370;-77
2022/03/24 15:06:17;;;;;;;;;;;;;;;;;;5029445;28;19921;-77
2022/03/24 15:08:43;;;;;;;;;;;;;;;;;;5029624;28;19921;-80
2022/03/24 15:11:09;;;;;;;;;;;;;;;;;;5029951;28;19991;-76
2022/03/24 15:13:35;;;;;;;;;;;;;;;;;;5050499;28;19924;-77
2022/03/24 15:16:03;;;;;;;;;;;;;;;;;;5053631;28;19917;-77
2022/03/24 15:18:29;;;;;;;;;;;;;;;;;;5055862;28;19916;-77
2022/03/24 15:20:55;;;;;;;;;;;;;;;;;;5063948;28;19931;-76
2022/03/24 15:23:21;;;;;;;;;;;;;;;;;;5059891;28;20396;-77
2022/03/24 15:25:47;;;;;;;;;;;;;;;;;;5066267;28;19916;-77
2022/03/24 15:28:12;;;;;;;;;;;;;;;;;;5057800;28;19917;-76
2022/03/24 15:30:38;;;;;;;;;;;;;;;;;;5075597;28;19923;-75
2022/03/24 15:33:03;;;;;;;;;;;;;;;;;;5075748;28;20011;-75
2022/03/24 15:35:29;;;;;;;;;;;;;;;;;;5075082;28;19920;-78
2022/03/24 15:37:55;;;;;;;;;;;;;;;;;;5075673;28;20037;-76
2022/03/24 15:40:21;;;;;;;;;;;;;;;;;;5076261;28;20557;-77
2022/03/24 15:42:46;;;;;;;;;;;;;;;;;;5075406;28;19920;-77
2022/03/24 15:45:15;;;;;;;;;;;;;;;;;;5074993;28;21376;-75
2022/03/24 15:47:43;;;;;;;;;;;;;;;;;;5072995;28;20379;-76
2022/03/24 15:50:10;;;;;;;;;;;;;;;;;;5075332;28;19917;-75
2022/03/24 15:52:36;;;;;;;;;;;;;;;;;;5075201;28;19916;-76
2022/03/24 15:55:01;;;;;;;;;;;;;;;;;;5076025;28;19925;-77
2022/03/24 15:57:27;;;;;;;;;;;;;;;;;;5076022;28;19920;-75
2022/03/24 15:59:52;;;;;;;;;;;;;;;;;;5077554;28;20462;-78
2022/03/24 16:02:20;;;;;;;;;;;;;;;;;;5076434;28;19916;-78
2022/03/24 16:04:45;;;;;;;;;;;;;;;;;;5076103;28;19920;-75
2022/03/24 16:07:13;;;;;;;;;;;;;;;;;;5070558;28;20330;-77
2022/03/24 16:09:39;;;;;;;;;;;;;;;;;;5074952;28;19964;-76
2022/03/24 16:12:04;;;;;;;;;;;;;;;;;;5075124;28;20395;-76
2022/03/24 16:14:30;;;;;;;;;;;;;;;;;;5076004;28;20279;-77
2022/03/24 16:16:55;;;;;;;;;;;;;;;;;;5075717;28;19920;-79
2022/03/24 16:19:21;;;;;;;;;;;;;;;;;;5074984;28;19968;-77
2022/03/24 16:21:47;;;;;;;;;;;;;;;;;;5073976;28;20380;-77
2022/03/24 16:24:12;;;;;;;;;;;;;;;;;;5067268;28;19974;-76
2022/03/24 16:26:38;;;;;;;;;;;;;;;;;;5072204;28;19921;-77
2022/03/24 16:29:04;;;;;;;;;;;;;;;;;;5040079;28;20056;-77
2022/03/24 16:31:29;;;;;;;;;;;;;;;;;;5075101;28;19920;-77
2022/03/24 16:33:55;;;;;;;;;;;;;;;;;;5064266;28;20442;-78
2022/03/24 16:36:20;;;;;;;;;;;;;;;;;;5060314;28;19921;-76
2022/03/24 16:38:46;;;;;;;;;;;;;;;;;;5041802;28;19928;-79
2022/03/24 16:41:12;;;;;;;;;;;;;;;;;;5059878;28;19924;-77
2022/03/24 16:43:38;;;;;;;;;;;;;;;;;;5061885;28;19935;-77
2022/03/24 16:46:03;;;;;;;;;;;;;;;;;;5057839;28;19921;-78
2022/03/24 16:48:29;;;;;;;;;;;;;;;;;;5040561;28;20011;-77
2022/03/24 16:50:54;;;;;;;;;;;;;;;;;;5060966;28;19925;-77
2022/03/24 16:53:20;;;;;;;;;;;;;;;;;;5063028;28;19917;-77
2022/03/24 16:55:45;;;;;;;;;;;;;;;;;;5056702;28;19934;-77
2022/03/24 16:58:11;;;;;;;;;;;;;;;;;;5064115;28;19995;-76
2022/03/24 17:00:38;;;;;;;;;;;;;;;;;;5062494;28;19920;-78
2022/03/24 17:03:04;;;;;;;;;;;;;;;;;;5065210;28;19928;-77
2022/03/24 17:05:30;;;;;;;;;;;;;;;;;;5066825;28;19917;-76
2022/03/24 17:07:56;;;;;;;;;;;;;;;;;;5045245;28;19969;-81
2022/03/24 17:10:22;;;;;;;;;;;;;;;;;;5042260;28;19925;-80
2022/03/24 17:12:47;;;;;;;;;;;;;;;;;;5054931;28;19924;-79
2022/03/24 17:15:13;;;;;;;;;;;;;;;;;;5063846;28;19928;-80
2022/03/24 17:17:38;;;;;;;;;;;;;;;;;;5066019;28;19920;-78
2022/03/24 17:20:04;;;;;;;;;;;;;;;;;;5059411;28;19924;-78
2022/03/24 17:22:31;;;;;;;;;;;;;;;;;;5062574;28;19925;-77
2022/03/24 17:24:56;;;;;;;;;;;;;;;;;;5059635;28;19924;-77
2022/03/24 17:27:22;;;;;;;;;;;;;;;;;;5061375;28;19935;-78
2022/03/24 17:29:47;;;;;;;;;;;;;;;;;;5060239;28;19921;-78